Lakeville, Ohio
Current Conditions -  °F | °C
As of 2:21 PM on Thursday 23 Oct 2014 (Local Time) from KBJJ Reporting Station
Broken Clouds Broken Clouds  
Wind Chill: 58°   Ceiling: 2800
Heat Index: 58°   Visibility: 10mi
Dew Point: 43°   Wind: 9mph
Humidity: 58%   Direction: 340°NNW
Pressure: 30.15"   Gusts: NA
Location:  40.66°N, 82.13°W
Report Text: KBJJ 231821Z AUTO 34008KT 10SM BKN028 14/06 A3015 RMK AO2 T01440061 TSNO
Loading
Personal Weather Stations






























Interactive Weather Map
Tropical Storm Tracking
New forecast layout! Learn more

10-Day Weather Forecast

Advertisements
Track Severe Weather on mobile